createdAt,value
2023-02-15T02:57:46.838Z,0.00
2023-02-15T03:13:42.467Z,0.00
2023-02-15T03:18:42.437Z,0.00
2023-02-15T03:23:42.321Z,0.00
2023-02-15T03:28:42.269Z,0.00
2023-02-15T03:33:42.312Z,0.00
2023-02-15T03:38:42.077Z,0.00
2023-02-15T03:43:42.177Z,0.00
2023-02-15T03:48:42.139Z,0.00
2023-02-15T03:53:41.892Z,0.00
2023-02-15T03:58:41.859Z,0.00
2023-02-15T04:03:45.310Z,0.00
2023-02-15T04:08:42.015Z,0.00
2023-02-15T04:57:07.441Z,0.00
2023-02-15T05:02:06.791Z,0.00
2023-02-15T06:00:39.222Z,8.00
2023-02-15T06:05:39.126Z,12.00
2023-02-15T06:10:39.038Z,24.00
2023-02-15T06:15:42.116Z,52.00
2023-02-15T06:20:38.951Z,92.00
2023-02-15T06:28:01.502Z,180.00
2023-02-15T06:34:35.196Z,292.00
2023-02-15T06:52:32.667Z,764.00
2023-02-15T06:57:32.803Z,928.00
2023-02-15T07:02:32.632Z,1036.00
2023-02-15T07:07:32.422Z,1248.00
2023-02-15T07:12:32.630Z,1536.00
2023-02-15T07:17:35.721Z,1752.00
2023-02-15T07:24:14.149Z,1924.00
2023-02-15T07:29:13.918Z,2268.00
2023-02-15T07:34:13.907Z,2216.00
2023-02-15T07:39:14.141Z,2612.00
2023-02-15T07:44:14.043Z,2724.00
2023-02-15T07:49:13.819Z,3088.00
2023-02-15T07:54:13.760Z,3736.00
2023-02-15T08:13:29.439Z,3908.00
2023-02-15T08:18:28.043Z,3992.00
2023-02-15T08:23:28.284Z,4608.00
2023-02-15T08:28:35.953Z,4872.00
2023-02-15T08:33:27.793Z,4764.00
2023-02-15T08:38:27.768Z,4732.00
2023-02-15T08:43:27.829Z,6096.00
2023-02-15T08:48:27.640Z,7168.00
2023-02-15T08:53:27.552Z,7240.00
2023-02-15T08:58:35.440Z,5776.00
2023-02-15T09:03:30.625Z,5836.00
2023-02-15T09:08:27.406Z,7044.00
2023-02-15T09:13:27.192Z,7104.00
2023-02-15T09:18:28.252Z,5640.00
2023-02-15T09:23:27.552Z,6332.00
2023-02-15T09:28:27.282Z,4972.00
2023-02-15T09:33:27.098Z,4592.00
2023-02-15T09:38:26.961Z,4732.00
2023-02-15T09:43:26.896Z,4348.00
2023-02-15T09:48:26.846Z,3448.00
2023-02-15T09:53:26.854Z,3348.00
2023-02-15T09:58:26.811Z,3212.00
2023-02-15T10:03:29.631Z,3112.00
2023-02-15T10:08:26.664Z,3064.00
2023-02-15T10:13:26.574Z,3064.00
2023-02-15T10:18:26.720Z,3052.00
2023-02-15T10:23:26.431Z,3052.00
2023-02-15T10:28:26.762Z,3040.00
2023-02-15T10:33:26.311Z,3032.00
2023-02-15T10:38:26.208Z,3008.00
2023-02-15T10:43:26.173Z,2992.00
2023-02-15T10:48:26.091Z,2992.00
2023-02-15T10:53:25.923Z,2976.00
2023-02-15T10:58:25.905Z,2968.00
2023-02-15T11:03:28.851Z,2960.00
2023-02-15T11:08:25.761Z,2948.00
2023-02-15T11:13:33.497Z,2936.00
2023-02-15T11:19:43.249Z,2928.00
2023-02-15T11:24:43.200Z,2920.00
2023-02-15T11:29:43.301Z,2904.00
2023-02-15T11:34:42.892Z,2892.00
2023-02-15T11:39:50.500Z,2876.00
2023-02-15T11:44:42.921Z,2868.00
2023-02-15T11:49:42.934Z,2860.00
2023-02-15T11:54:50.676Z,2848.00
2023-02-15T11:59:42.860Z,2844.00
2023-02-15T12:04:42.706Z,2840.00
2023-02-15T12:09:45.533Z,2828.00
2023-02-15T12:14:42.603Z,2828.00
2023-02-15T12:19:42.514Z,2832.00
2023-02-15T12:24:42.409Z,2828.00
2023-02-15T12:29:42.367Z,2820.00
2023-02-15T12:34:42.317Z,2820.00
2023-02-15T12:39:42.294Z,2808.00
2023-02-15T12:44:42.089Z,2808.00
2023-02-15T12:49:47.519Z,2808.00
2023-02-15T12:54:43.029Z,2808.00
2023-02-15T12:59:43.984Z,2808.00
2023-02-15T13:04:41.851Z,2812.00
2023-02-15T13:09:44.781Z,2832.00
2023-02-15T13:14:41.704Z,2852.00
2023-02-15T13:19:41.885Z,2876.00
2023-02-15T13:24:41.576Z,2940.00
2023-02-15T13:29:41.769Z,3020.00
2023-02-15T13:34:41.397Z,3096.00
2023-02-15T13:39:41.559Z,3164.00
2023-02-15T13:44:41.208Z,4112.00
2023-02-15T13:49:41.426Z,3928.00
2023-02-15T13:54:41.079Z,3768.00
2023-02-15T13:59:41.106Z,3348.00
2023-02-15T14:04:41.076Z,3448.00
2023-02-15T14:12:06.178Z,3360.00
2023-02-15T14:18:45.215Z,3500.00
2023-02-15T14:23:44.893Z,3656.00
2023-02-15T14:28:44.892Z,2864.00
2023-02-15T14:33:44.844Z,2596.00
2023-02-15T14:38:44.853Z,2440.00
2023-02-15T14:43:44.724Z,2504.00
2023-02-15T14:48:53.282Z,2416.00
2023-02-15T14:53:44.490Z,2308.00
2023-02-15T14:58:44.579Z,2224.00
2023-02-15T15:03:44.416Z,2164.00
2023-02-15T15:08:47.392Z,2100.00
2023-02-15T15:13:44.415Z,2140.00
2023-02-15T15:18:44.198Z,2004.00
2023-02-15T15:23:44.175Z,1852.00
2023-02-15T15:28:44.080Z,1768.00
2023-02-15T15:33:44.022Z,1676.00
2023-02-15T15:38:44.187Z,1580.00
2023-02-15T15:43:44.000Z,1480.00
2023-02-15T15:50:08.904Z,1340.00
2023-02-15T15:55:08.790Z,1220.00
2023-02-15T16:00:08.876Z,1076.00
2023-02-15T16:05:08.737Z,924.00
2023-02-15T16:10:08.952Z,740.00
2023-02-15T16:15:08.565Z,544.00
2023-02-15T16:20:08.600Z,388.00
2023-02-15T16:25:10.402Z,244.00
2023-02-15T16:30:08.406Z,152.00
2023-02-15T16:35:08.508Z,88.00
2023-02-15T16:40:11.237Z,48.00
2023-02-15T16:45:08.152Z,20.00
2023-02-15T16:50:08.134Z,12.00
2023-02-15T16:55:08.025Z,4.00
2023-02-15T17:00:07.999Z,0.00
2023-02-15T17:05:08.219Z,0.00
2023-02-15T17:10:13.694Z,0.00
2023-02-15T17:15:08.185Z,0.00
2023-02-15T17:20:07.798Z,0.00
2023-02-15T17:25:07.696Z,0.00
2023-02-15T17:30:07.851Z,0.00
2023-02-15T17:35:07.605Z,0.00
2023-02-15T17:40:10.743Z,0.00
2023-02-15T17:45:10.177Z,0.00
2023-02-15T17:50:07.331Z,0.00
2023-02-15T17:55:07.563Z,0.00
2023-02-15T18:10:42.623Z,0.00
2023-02-15T18:15:42.357Z,0.00
2023-02-15T18:20:42.338Z,0.00
2023-02-15T18:25:42.066Z,0.00
2023-02-15T18:30:42.157Z,0.00
2023-02-15T18:35:42.310Z,0.00
2023-02-15T18:40:42.464Z,0.00
2023-02-15T19:06:33.101Z,0.00
2023-02-15T19:11:33.660Z,0.00
2023-02-15T19:44:35.277Z,0.00
2023-02-15T21:13:13.047Z,0.00
2023-02-15T21:18:16.098Z,0.00
2023-02-15T22:07:12.691Z,0.00
2023-02-15T22:12:12.448Z,0.00
2023-02-15T22:17:12.369Z,0.00
2023-02-15T22:22:12.518Z,0.00
2023-02-15T22:27:12.759Z,0.00
2023-02-15T22:32:13.634Z,0.00
2023-02-15T23:15:24.695Z,0.00
2023-02-15T23:20:24.025Z,0.00
2023-02-15T23:25:23.975Z,0.00
2023-02-15T23:30:24.327Z,0.00
2023-02-15T23:48:01.496Z,0.00
2023-02-15T23:53:00.275Z,0.00
2023-02-15T23:58:00.331Z,0.00
